sensor_id;sensor_type;location;lat;lon;timestamp;pressure;altitude;pressure_sealevel;temperature
63220;BMP180;49320;52.512;13.448;2022-10-31T00:01:33;101392.00;;;20.10
63220;BMP180;49320;52.512;13.448;2022-10-31T00:04:00;101394.00;;;20.10
63220;BMP180;49320;52.512;13.448;2022-10-31T00:06:27;101392.00;;;20.10
63220;BMP180;49320;52.512;13.448;2022-10-31T00:09:00;101391.00;;;20.10
63220;BMP180;49320;52.512;13.448;2022-10-31T00:11:28;101401.00;;;20.10
63220;BMP180;49320;52.512;13.448;2022-10-31T00:13:57;101402.00;;;20.00
63220;BMP180;49320;52.512;13.448;2022-10-31T00:16:26;101401.00;;;20.10
63220;BMP180;49320;52.512;13.448;2022-10-31T00:19:00;101396.00;;;20.00
63220;BMP180;49320;52.512;13.448;2022-10-31T00:21:28;101400.00;;;20.00
63220;BMP180;49320;52.512;13.448;2022-10-31T00:23:57;101395.00;;;20.00
63220;BMP180;49320;52.512;13.448;2022-10-31T00:26:24;101397.00;;;20.00
63220;BMP180;49320;52.512;13.448;2022-10-31T00:28:51;101410.00;;;20.00
63220;BMP180;49320;52.512;13.448;2022-10-31T00:31:18;101411.00;;;20.00
63220;BMP180;49320;52.512;13.448;2022-10-31T00:33:44;101403.00;;;20.00
63220;BMP180;49320;52.512;13.448;2022-10-31T00:36:17;101408.00;;;20.00
63220;BMP180;49320;52.512;13.448;2022-10-31T00:38:46;101404.00;;;20.00
63220;BMP180;49320;52.512;13.448;2022-10-31T00:41:15;101401.00;;;20.00
63220;BMP180;49320;52.512;13.448;2022-10-31T00:43:43;101404.00;;;20.00
63220;BMP180;49320;52.512;13.448;2022-10-31T00:46:12;101411.00;;;19.90
63220;BMP180;49320;52.512;13.448;2022-10-31T00:48:39;101410.00;;;19.90
63220;BMP180;49320;52.512;13.448;2022-10-31T00:51:06;101426.00;;;19.90
63220;BMP180;49320;52.512;13.448;2022-10-31T00:53:33;101420.00;;;19.90
63220;BMP180;49320;52.512;13.448;2022-10-31T00:56:00;101421.00;;;19.90
63220;BMP180;49320;52.512;13.448;2022-10-31T00:58:26;101417.00;;;19.90
63220;BMP180;49320;52.512;13.448;2022-10-31T01:00:53;101425.00;;;19.90
63220;BMP180;49320;52.512;13.448;2022-10-31T01:03:26;101426.00;;;19.90
63220;BMP180;49320;52.512;13.448;2022-10-31T01:06:08;101428.00;;;19.80
63220;BMP180;49320;52.512;13.448;2022-10-31T01:08:37;101425.00;;;19.80
63220;BMP180;49320;52.512;13.448;2022-10-31T01:11:12;101432.00;;;19.80
63220;BMP180;49320;52.512;13.448;2022-10-31T01:13:40;101431.00;;;19.80
63220;BMP180;49320;52.512;13.448;2022-10-31T01:16:11;101432.00;;;19.80
63220;BMP180;49320;52.512;13.448;2022-10-31T01:18:38;101437.00;;;19.80
63220;BMP180;49320;52.512;13.448;2022-10-31T01:21:10;101436.00;;;19.80
63220;BMP180;49320;52.512;13.448;2022-10-31T01:23:38;101439.00;;;19.80
63220;BMP180;49320;52.512;13.448;2022-10-31T01:26:10;101431.00;;;19.80
63220;BMP180;49320;52.512;13.448;2022-10-31T01:28:45;101441.00;;;19.80
63220;BMP180;49320;52.512;13.448;2022-10-31T01:31:12;101441.00;;;19.80
63220;BMP180;49320;52.512;13.448;2022-10-31T01:33:39;101426.00;;;19.80
63220;BMP180;49320;52.512;13.448;2022-10-31T01:36:19;101436.00;;;19.80
63220;BMP180;49320;52.512;13.448;2022-10-31T01:38:47;101429.00;;;19.80
63220;BMP180;49320;52.512;13.448;2022-10-31T01:41:22;101428.00;;;19.80
63220;BMP180;49320;52.512;13.448;2022-10-31T01:43:58;101439.00;;;19.80
63220;BMP180;49320;52.512;13.448;2022-10-31T01:46:32;101436.00;;;19.80
63220;BMP180;49320;52.512;13.448;2022-10-31T01:49:04;101442.00;;;19.80
63220;BMP180;49320;52.512;13.448;2022-10-31T01:51:37;101428.00;;;19.80
63220;BMP180;49320;52.512;13.448;2022-10-31T01:54:12;101425.00;;;19.80
63220;BMP180;49320;52.512;13.448;2022-10-31T01:56:44;101428.00;;;19.80
63220;BMP180;49320;52.512;13.448;2022-10-31T01:59:16;101432.00;;;19.80
63220;BMP180;49320;52.512;13.448;2022-10-31T02:01:45;101440.00;;;19.80
63220;BMP180;49320;52.512;13.448;2022-10-31T02:04:13;101438.00;;;19.80
63220;BMP180;49320;52.512;13.448;2022-10-31T02:06:49;101449.00;;;19.80
63220;BMP180;49320;52.512;13.448;2022-10-31T02:09:19;101445.00;;;19.80
63220;BMP180;49320;52.512;13.448;2022-10-31T02:11:56;101438.00;;;19.80
63220;BMP180;49320;52.512;13.448;2022-10-31T02:14:25;101444.00;;;19.80
63220;BMP180;49320;52.512;13.448;2022-10-31T02:16:54;101441.00;;;19.80
63220;BMP180;49320;52.512;13.448;2022-10-31T02:22:53;101448.00;;;19.80
63220;BMP180;49320;52.512;13.448;2022-10-31T02:31:54;101443.00;;;19.70
63220;BMP180;49320;52.512;13.448;2022-10-31T02:34:38;101436.00;;;19.70
63220;BMP180;49320;52.512;13.448;2022-10-31T02:37:18;101431.00;;;19.70
63220;BMP180;49320;52.512;13.448;2022-10-31T02:43:00;101435.00;;;19.70
63220;BMP180;49320;52.512;13.448;2022-10-31T02:45:58;101444.00;;;19.70
63220;BMP180;49320;52.512;13.448;2022-10-31T02:48:33;101438.00;;;19.70
63220;BMP180;49320;52.512;13.448;2022-10-31T02:51:04;101441.00;;;19.70
63220;BMP180;49320;52.512;13.448;2022-10-31T02:53:33;101441.00;;;19.70
63220;BMP180;49320;52.512;13.448;2022-10-31T02:56:16;101442.00;;;19.70
63220;BMP180;49320;52.512;13.448;2022-10-31T02:58:58;101449.00;;;19.70
63220;BMP180;49320;52.512;13.448;2022-10-31T03:02:00;101449.00;;;19.70
63220;BMP180;49320;52.512;13.448;2022-10-31T03:04:54;101451.00;;;19.70
63220;BMP180;49320;52.512;13.448;2022-10-31T03:10:43;101462.00;;;19.60
63220;BMP180;49320;52.512;13.448;2022-10-31T03:13:49;101459.00;;;19.60
63220;BMP180;49320;52.512;13.448;2022-10-31T03:19:04;101457.00;;;19.60
63220;BMP180;49320;52.512;13.448;2022-10-31T03:21:44;101459.00;;;19.50
63220;BMP180;49320;52.512;13.448;2022-10-31T03:24:14;101472.00;;;19.60
63220;BMP180;49320;52.512;13.448;2022-10-31T03:26:53;101476.00;;;19.60
63220;BMP180;49320;52.512;13.448;2022-10-31T03:29:28;101472.00;;;19.60
63220;BMP180;49320;52.512;13.448;2022-10-31T03:32:12;101471.00;;;19.60
63220;BMP180;49320;52.512;13.448;2022-10-31T03:34:43;101484.00;;;19.60
63220;BMP180;49320;52.512;13.448;2022-10-31T03:37:17;101470.00;;;19.60
63220;BMP180;49320;52.512;13.448;2022-10-31T03:39:47;101485.00;;;19.60
63220;BMP180;49320;52.512;13.448;2022-10-31T03:42:31;101481.00;;;19.60
63220;BMP180;49320;52.512;13.448;2022-10-31T03:45:13;101492.00;;;19.50
63220;BMP180;49320;52.512;13.448;2022-10-31T03:47:43;101497.00;;;19.50
63220;BMP180;49320;52.512;13.448;2022-10-31T03:50:14;101507.00;;;19.50
63220;BMP180;49320;52.512;13.448;2022-10-31T03:53:09;101503.00;;;19.50
63220;BMP180;49320;52.512;13.448;2022-10-31T03:55:48;101504.00;;;19.50
63220;BMP180;49320;52.512;13.448;2022-10-31T03:58:35;101497.00;;;19.50
63220;BMP180;49320;52.512;13.448;2022-10-31T04:01:06;101502.00;;;19.50
63220;BMP180;49320;52.512;13.448;2022-10-31T04:03:38;101507.00;;;19.50
63220;BMP180;49320;52.512;13.448;2022-10-31T04:06:11;101501.00;;;19.50
63220;BMP180;49320;52.512;13.448;2022-10-31T04:08:55;101505.00;;;19.50
63220;BMP180;49320;52.512;13.448;2022-10-31T04:11:29;101502.00;;;19.50
63220;BMP180;49320;52.512;13.448;2022-10-31T04:14:00;101502.00;;;19.50
63220;BMP180;49320;52.512;13.448;2022-10-31T04:16:28;101503.00;;;19.50
63220;BMP180;49320;52.512;13.448;2022-10-31T04:18:55;101501.00;;;19.50
63220;BMP180;49320;52.512;13.448;2022-10-31T04:21:30;101519.00;;;19.50
63220;BMP180;49320;52.512;13.448;2022-10-31T04:23:57;101506.00;;;19.50
63220;BMP180;49320;52.512;13.448;2022-10-31T04:26:24;101523.00;;;19.50
63220;BMP180;49320;52.512;13.448;2022-10-31T04:28:51;101523.00;;;19.50
63220;BMP180;49320;52.512;13.448;2022-10-31T04:31:18;101517.00;;;19.50
63220;BMP180;49320;52.512;13.448;2022-10-31T04:33:45;101510.00;;;19.50
63220;BMP180;49320;52.512;13.448;2022-10-31T04:36:12;101513.00;;;19.50
63220;BMP180;49320;52.512;13.448;2022-10-31T04:38:39;101513.00;;;19.50
63220;BMP180;49320;52.512;13.448;2022-10-31T04:41:07;101519.00;;;19.60
63220;BMP180;49320;52.512;13.448;2022-10-31T04:43:34;101520.00;;;19.60
63220;BMP180;49320;52.512;13.448;2022-10-31T04:46:00;101516.00;;;19.60
63220;BMP180;49320;52.512;13.448;2022-10-31T04:48:27;101530.00;;;19.60
63220;BMP180;49320;52.512;13.448;2022-10-31T04:50:59;101529.00;;;19.60
63220;BMP180;49320;52.512;13.448;2022-10-31T04:53:27;101524.00;;;19.60
63220;BMP180;49320;52.512;13.448;2022-10-31T04:55:54;101525.00;;;19.60
63220;BMP180;49320;52.512;13.448;2022-10-31T04:58:23;101529.00;;;19.60
63220;BMP180;49320;52.512;13.448;2022-10-31T05:00:55;101524.00;;;19.60
63220;BMP180;49320;52.512;13.448;2022-10-31T05:03:22;101520.00;;;19.60
63220;BMP180;49320;52.512;13.448;2022-10-31T05:05:49;101529.00;;;19.70
63220;BMP180;49320;52.512;13.448;2022-10-31T05:08:15;101523.00;;;19.70
63220;BMP180;49320;52.512;13.448;2022-10-31T05:10:42;101526.00;;;19.70
63220;BMP180;49320;52.512;13.448;2022-10-31T05:13:10;101532.00;;;19.70
63220;BMP180;49320;52.512;13.448;2022-10-31T05:15:37;101533.00;;;19.70
63220;BMP180;49320;52.512;13.448;2022-10-31T05:18:04;101532.00;;;19.70
63220;BMP180;49320;52.512;13.448;2022-10-31T05:20:31;101537.00;;;19.70
63220;BMP180;49320;52.512;13.448;2022-10-31T05:22:59;101529.00;;;19.70
63220;BMP180;49320;52.512;13.448;2022-10-31T05:25:28;101535.00;;;19.70
63220;BMP180;49320;52.512;13.448;2022-10-31T05:27:56;101536.00;;;19.70
63220;BMP180;49320;52.512;13.448;2022-10-31T05:30:29;101541.00;;;19.70
63220;BMP180;49320;52.512;13.448;2022-10-31T05:32:56;101539.00;;;19.80
63220;BMP180;49320;52.512;13.448;2022-10-31T05:35:30;101539.00;;;19.80
63220;BMP180;49320;52.512;13.448;2022-10-31T05:37:58;101546.00;;;19.80
63220;BMP180;49320;52.512;13.448;2022-10-31T05:40:27;101545.00;;;19.80
63220;BMP180;49320;52.512;13.448;2022-10-31T05:42:56;101540.00;;;19.80
63220;BMP180;49320;52.512;13.448;2022-10-31T05:45:25;101541.00;;;19.80
63220;BMP180;49320;52.512;13.448;2022-10-31T05:47:56;101540.00;;;19.80
63220;BMP180;49320;52.512;13.448;2022-10-31T05:50:25;101546.00;;;19.80
63220;BMP180;49320;52.512;13.448;2022-10-31T05:53:04;101552.00;;;19.80
63220;BMP180;49320;52.512;13.448;2022-10-31T05:55:32;101548.00;;;19.80
63220;BMP180;49320;52.512;13.448;2022-10-31T05:57:59;101548.00;;;19.80
63220;BMP180;49320;52.512;13.448;2022-10-31T06:00:27;101551.00;;;19.80
63220;BMP180;49320;52.512;13.448;2022-10-31T06:02:59;101557.00;;;19.80
63220;BMP180;49320;52.512;13.448;2022-10-31T06:05:28;101558.00;;;19.80
63220;BMP180;49320;52.512;13.448;2022-10-31T06:07:55;101556.00;;;19.80
63220;BMP180;49320;52.512;13.448;2022-10-31T06:10:24;101561.00;;;19.80
63220;BMP180;49320;52.512;13.448;2022-10-31T06:12:51;101564.00;;;19.80
63220;BMP180;49320;52.512;13.448;2022-10-31T06:15:18;101565.00;;;19.90
63220;BMP180;49320;52.512;13.448;2022-10-31T06:18:02;101566.00;;;19.90
63220;BMP180;49320;52.512;13.448;2022-10-31T06:20:31;101566.00;;;19.90
63220;BMP180;49320;52.512;13.448;2022-10-31T06:22:58;101564.00;;;19.90
63220;BMP180;49320;52.512;13.448;2022-10-31T06:25:26;101565.00;;;19.90
63220;BMP180;49320;52.512;13.448;2022-10-31T06:27:54;101569.00;;;19.90
63220;BMP180;49320;52.512;13.448;2022-10-31T06:30:21;101568.00;;;20.00
63220;BMP180;49320;52.512;13.448;2022-10-31T06:32:48;101569.00;;;20.00
63220;BMP180;49320;52.512;13.448;2022-10-31T06:35:16;101569.00;;;20.00
63220;BMP180;49320;52.512;13.448;2022-10-31T06:37:51;101576.00;;;20.00
63220;BMP180;49320;52.512;13.448;2022-10-31T06:40:18;101586.00;;;20.00
63220;BMP180;49320;52.512;13.448;2022-10-31T06:42:45;101579.00;;;20.10
63220;BMP180;49320;52.512;13.448;2022-10-31T06:45:12;101588.00;;;20.10
63220;BMP180;49320;52.512;13.448;2022-10-31T06:47:39;101588.00;;;20.10
63220;BMP180;49320;52.512;13.448;2022-10-31T06:50:26;101599.00;;;20.20
63220;BMP180;49320;52.512;13.448;2022-10-31T06:52:57;101593.00;;;20.20
63220;BMP180;49320;52.512;13.448;2022-10-31T06:55:26;101596.00;;;20.20
63220;BMP180;49320;52.512;13.448;2022-10-31T06:57:57;101614.00;;;20.20
63220;BMP180;49320;52.512;13.448;2022-10-31T07:00:30;101608.00;;;20.20
63220;BMP180;49320;52.512;13.448;2022-10-31T07:03:00;101602.00;;;20.20
63220;BMP180;49320;52.512;13.448;2022-10-31T07:05:29;101612.00;;;20.30
63220;BMP180;49320;52.512;13.448;2022-10-31T07:07:59;101614.00;;;20.30
63220;BMP180;49320;52.512;13.448;2022-10-31T07:10:29;101616.00;;;20.30
63220;BMP180;49320;52.512;13.448;2022-10-31T07:13:04;101619.00;;;20.40
63220;BMP180;49320;52.512;13.448;2022-10-31T07:15:38;101620.00;;;20.40
63220;BMP180;49320;52.512;13.448;2022-10-31T07:18:08;101613.00;;;20.50
63220;BMP180;49320;52.512;13.448;2022-10-31T07:20:35;101608.00;;;20.60
63220;BMP180;49320;52.512;13.448;2022-10-31T07:23:03;101620.00;;;20.60
63220;BMP180;49320;52.512;13.448;2022-10-31T07:25:31;101624.00;;;20.60
63220;BMP180;49320;52.512;13.448;2022-10-31T07:27:57;101630.00;;;20.70
63220;BMP180;49320;52.512;13.448;2022-10-31T07:30:25;101614.00;;;20.80
63220;BMP180;49320;52.512;13.448;2022-10-31T07:32:52;101621.00;;;20.80
63220;BMP180;49320;52.512;13.448;2022-10-31T07:35:23;101623.00;;;20.90
63220;BMP180;49320;52.512;13.448;2022-10-31T07:37:50;101631.00;;;21.00
63220;BMP180;49320;52.512;13.448;2022-10-31T07:40:19;101631.00;;;21.00
63220;BMP180;49320;52.512;13.448;2022-10-31T07:42:50;101623.00;;;21.10
63220;BMP180;49320;52.512;13.448;2022-10-31T07:45:20;101646.00;;;21.20
63220;BMP180;49320;52.512;13.448;2022-10-31T07:47:50;101637.00;;;21.20
63220;BMP180;49320;52.512;13.448;2022-10-31T07:50:24;101645.00;;;21.20
63220;BMP180;49320;52.512;13.448;2022-10-31T07:53:04;101643.00;;;21.30
63220;BMP180;49320;52.512;13.448;2022-10-31T07:55:32;101639.00;;;21.30
63220;BMP180;49320;52.512;13.448;2022-10-31T07:58:06;101638.00;;;21.30
63220;BMP180;49320;52.512;13.448;2022-10-31T08:00:35;101642.00;;;21.30
63220;BMP180;49320;52.512;13.448;2022-10-31T08:03:11;101650.00;;;21.40
63220;BMP180;49320;52.512;13.448;2022-10-31T08:05:39;101657.00;;;21.40
63220;BMP180;49320;52.512;13.448;2022-10-31T08:08:08;101663.00;;;21.40
63220;BMP180;49320;52.512;13.448;2022-10-31T08:10:35;101655.00;;;21.40
63220;BMP180;49320;52.512;13.448;2022-10-31T08:13:11;101650.00;;;21.40
63220;BMP180;49320;52.512;13.448;2022-10-31T08:15:38;101661.00;;;21.40
63220;BMP180;49320;52.512;13.448;2022-10-31T08:18:14;101659.00;;;21.50
63220;BMP180;49320;52.512;13.448;2022-10-31T08:20:43;101659.00;;;21.40
63220;BMP180;49320;52.512;13.448;2022-10-31T08:23:11;101664.00;;;21.40
63220;BMP180;49320;52.512;13.448;2022-10-31T08:25:39;101667.00;;;21.40
63220;BMP180;49320;52.512;13.448;2022-10-31T08:28:08;101663.00;;;21.40
63220;BMP180;49320;52.512;13.448;2022-10-31T08:30:37;101660.00;;;21.40
63220;BMP180;49320;52.512;13.448;2022-10-31T08:33:12;101657.00;;;21.30
63220;BMP180;49320;52.512;13.448;2022-10-31T08:35:39;101669.00;;;21.30
63220;BMP180;49320;52.512;13.448;2022-10-31T08:38:09;101676.00;;;21.30
63220;BMP180;49320;52.512;13.448;2022-10-31T08:40:38;101668.00;;;21.30
63220;BMP180;49320;52.512;13.448;2022-10-31T08:43:10;101675.00;;;21.30
63220;BMP180;49320;52.512;13.448;2022-10-31T08:45:38;101681.00;;;21.30
63220;BMP180;49320;52.512;13.448;2022-10-31T08:48:11;101670.00;;;21.30
63220;BMP180;49320;52.512;13.448;2022-10-31T08:50:39;101667.00;;;21.30
63220;BMP180;49320;52.512;13.448;2022-10-31T08:53:12;101660.00;;;21.30
63220;BMP180;49320;52.512;13.448;2022-10-31T08:55:41;101661.00;;;21.30
63220;BMP180;49320;52.512;13.448;2022-10-31T08:58:18;101654.00;;;21.30
63220;BMP180;49320;52.512;13.448;2022-10-31T09:00:49;101655.00;;;21.30
63220;BMP180;49320;52.512;13.448;2022-10-31T09:03:26;101666.00;;;21.30
63220;BMP180;49320;52.512;13.448;2022-10-31T09:05:59;101668.00;;;21.30
63220;BMP180;49320;52.512;13.448;2022-10-31T09:08:29;101670.00;;;21.30
63220;BMP180;49320;52.512;13.448;2022-10-31T09:10:57;101674.00;;;21.30
63220;BMP180;49320;52.512;13.448;2022-10-31T09:13:24;101670.00;;;21.30
63220;BMP180;49320;52.512;13.448;2022-10-31T09:15:56;101669.00;;;21.30
63220;BMP180;49320;52.512;13.448;2022-10-31T09:18:24;101672.00;;;21.30
63220;BMP180;49320;52.512;13.448;2022-10-31T09:20:51;101682.00;;;21.30
63220;BMP180;49320;52.512;13.448;2022-10-31T09:23:22;101679.00;;;21.30
63220;BMP180;49320;52.512;13.448;2022-10-31T09:25:52;101683.00;;;21.40
63220;BMP180;49320;52.512;13.448;2022-10-31T09:28:22;101684.00;;;21.40
63220;BMP180;49320;52.512;13.448;2022-10-31T09:30:52;101694.00;;;21.40
63220;BMP180;49320;52.512;13.448;2022-10-31T09:33:19;101688.00;;;21.50
63220;BMP180;49320;52.512;13.448;2022-10-31T09:35:47;101684.00;;;21.50
63220;BMP180;49320;52.512;13.448;2022-10-31T09:38:18;101692.00;;;21.60
63220;BMP180;49320;52.512;13.448;2022-10-31T09:41:06;101696.00;;;21.60
63220;BMP180;49320;52.512;13.448;2022-10-31T09:46:49;101696.00;;;21.70
63220;BMP180;49320;52.512;13.448;2022-10-31T09:49:59;101705.00;;;21.80
63220;BMP180;49320;52.512;13.448;2022-10-31T09:52:33;101708.00;;;21.80
63220;BMP180;49320;52.512;13.448;2022-10-31T09:55:23;101710.00;;;21.90
63220;BMP180;49320;52.512;13.448;2022-10-31T09:57:53;101699.00;;;21.90
63220;BMP180;49320;52.512;13.448;2022-10-31T10:00:22;101702.00;;;22.00
63220;BMP180;49320;52.512;13.448;2022-10-31T10:08:26;101702.00;;;22.10
63220;BMP180;49320;52.512;13.448;2022-10-31T10:11:29;101695.00;;;22.20
63220;BMP180;49320;52.512;13.448;2022-10-31T10:14:13;101702.00;;;22.20
63220;BMP180;49320;52.512;13.448;2022-10-31T10:17:18;101688.00;;;22.20
63220;BMP180;49320;52.512;13.448;2022-10-31T10:23:27;101686.00;;;22.30
63220;BMP180;49320;52.512;13.448;2022-10-31T10:26:13;101680.00;;;22.40
63220;BMP180;49320;52.512;13.448;2022-10-31T10:28:47;101685.00;;;22.40
63220;BMP180;49320;52.512;13.448;2022-10-31T10:31:21;101678.00;;;22.50
63220;BMP180;49320;52.512;13.448;2022-10-31T10:34:22;101678.00;;;22.60
63220;BMP180;49320;52.512;13.448;2022-10-31T10:37:03;101676.00;;;22.60
63220;BMP180;49320;52.512;13.448;2022-10-31T10:39:44;101680.00;;;22.70
63220;BMP180;49320;52.512;13.448;2022-10-31T10:42:14;101677.00;;;22.70
63220;BMP180;49320;52.512;13.448;2022-10-31T10:45:16;101671.00;;;22.80
63220;BMP180;49320;52.512;13.448;2022-10-31T10:48:16;101663.00;;;22.90
63220;BMP180;49320;52.512;13.448;2022-10-31T10:50:50;101668.00;;;22.90
63220;BMP180;49320;52.512;13.448;2022-10-31T10:54:02;101662.00;;;23.00
63220;BMP180;49320;52.512;13.448;2022-10-31T10:56:54;101670.00;;;23.00
63220;BMP180;49320;52.512;13.448;2022-10-31T10:59:26;101666.00;;;23.10
63220;BMP180;49320;52.512;13.448;2022-10-31T11:01:53;101672.00;;;23.20
63220;BMP180;49320;52.512;13.448;2022-10-31T11:04:42;101666.00;;;23.20
63220;BMP180;49320;52.512;13.448;2022-10-31T11:07:11;101665.00;;;23.30
63220;BMP180;49320;52.512;13.448;2022-10-31T11:09:38;101669.00;;;23.30
63220;BMP180;49320;52.512;13.448;2022-10-31T11:12:17;101663.00;;;23.40
63220;BMP180;49320;52.512;13.448;2022-10-31T11:14:54;101661.00;;;23.50
63220;BMP180;49320;52.512;13.448;2022-10-31T11:17:52;101660.00;;;23.50
63220;BMP180;49320;52.512;13.448;2022-10-31T11:20:25;101647.00;;;23.60
63220;BMP180;49320;52.512;13.448;2022-10-31T11:23:04;101653.00;;;23.70
63220;BMP180;49320;52.512;13.448;2022-10-31T11:25:32;101653.00;;;23.70
63220;BMP180;49320;52.512;13.448;2022-10-31T11:28:19;101641.00;;;23.70
63220;BMP180;49320;52.512;13.448;2022-10-31T11:30:57;101641.00;;;23.70
63220;BMP180;49320;52.512;13.448;2022-10-31T11:33:37;101647.00;;;23.80
63220;BMP180;49320;52.512;13.448;2022-10-31T11:36:28;101630.00;;;23.80
63220;BMP180;49320;52.512;13.448;2022-10-31T11:38:55;101643.00;;;23.90
63220;BMP180;49320;52.512;13.448;2022-10-31T11:41:33;101643.00;;;23.90
63220;BMP180;49320;52.512;13.448;2022-10-31T11:44:16;101646.00;;;24.00
63220;BMP180;49320;52.512;13.448;2022-10-31T11:46:50;101639.00;;;24.00
63220;BMP180;49320;52.512;13.448;2022-10-31T11:49:37;101646.00;;;24.10
63220;BMP180;49320;52.512;13.448;2022-10-31T11:52:13;101649.00;;;24.10
63220;BMP180;49320;52.512;13.448;2022-10-31T11:54:53;101638.00;;;24.20
63220;BMP180;49320;52.512;13.448;2022-10-31T11:57:33;101635.00;;;24.20
63220;BMP180;49320;52.512;13.448;2022-10-31T12:00:28;101648.00;;;24.20
63220;BMP180;49320;52.512;13.448;2022-10-31T12:05:39;101646.00;;;24.30
63220;BMP180;49320;52.512;13.448;2022-10-31T12:08:12;101646.00;;;24.30
63220;BMP180;49320;52.512;13.448;2022-10-31T12:16:39;101625.00;;;24.40
63220;BMP180;49320;52.512;13.448;2022-10-31T12:28:08;101631.00;;;24.50
63220;BMP180;49320;52.512;13.448;2022-10-31T12:31:17;101630.00;;;24.60
63220;BMP180;49320;52.512;13.448;2022-10-31T12:37:13;101616.00;;;24.60
63220;BMP180;49320;52.512;13.448;2022-10-31T12:51:55;101602.00;;;24.80
63220;BMP180;49320;52.512;13.448;2022-10-31T12:57:48;101602.00;;;24.80
63220;BMP180;49320;52.512;13.448;2022-10-31T13:00:19;101603.00;;;24.90
63220;BMP180;49320;52.512;13.448;2022-10-31T13:03:23;101598.00;;;24.90
63220;BMP180;49320;52.512;13.448;2022-10-31T13:05:58;101605.00;;;24.90
63220;BMP180;49320;52.512;13.448;2022-10-31T13:08:57;101603.00;;;25.00
63220;BMP180;49320;52.512;13.448;2022-10-31T13:11:36;101599.00;;;25.00
63220;BMP180;49320;52.512;13.448;2022-10-31T13:17:39;101593.00;;;25.00
63220;BMP180;49320;52.512;13.448;2022-10-31T13:20:29;101586.00;;;25.10
63220;BMP180;49320;52.512;13.448;2022-10-31T13:23:24;101597.00;;;25.10
63220;BMP180;49320;52.512;13.448;2022-10-31T13:26:35;101596.00;;;25.10
63220;BMP180;49320;52.512;13.448;2022-10-31T13:31:42;101583.00;;;25.10
63220;BMP180;49320;52.512;13.448;2022-10-31T13:34:22;101587.00;;;25.10
63220;BMP180;49320;52.512;13.448;2022-10-31T13:37:36;101582.00;;;25.10
63220;BMP180;49320;52.512;13.448;2022-10-31T13:40:27;101582.00;;;25.10
63220;BMP180;49320;52.512;13.448;2022-10-31T13:43:18;101579.00;;;25.10
63220;BMP180;49320;52.512;13.448;2022-10-31T13:45:52;101578.00;;;25.10
63220;BMP180;49320;52.512;13.448;2022-10-31T13:48:37;101584.00;;;25.10
63220;BMP180;49320;52.512;13.448;2022-10-31T13:51:09;101577.00;;;25.10
63220;BMP180;49320;52.512;13.448;2022-10-31T13:56:26;101573.00;;;25.10
63220;BMP180;49320;52.512;13.448;2022-10-31T13:59:15;101576.00;;;25.10
63220;BMP180;49320;52.512;13.448;2022-10-31T14:01:50;101576.00;;;25.10
63220;BMP180;49320;52.512;13.448;2022-10-31T14:04:22;101576.00;;;25.10
63220;BMP180;49320;52.512;13.448;2022-10-31T14:06:58;101567.00;;;25.10
63220;BMP180;49320;52.512;13.448;2022-10-31T14:12:34;101562.00;;;25.10
63220;BMP180;49320;52.512;13.448;2022-10-31T14:15:19;101561.00;;;25.10
63220;BMP180;49320;52.512;13.448;2022-10-31T14:17:50;101560.00;;;25.00
63220;BMP180;49320;52.512;13.448;2022-10-31T14:22:44;101562.00;;;25.00
63220;BMP180;49320;52.512;13.448;2022-10-31T14:25:34;101555.00;;;25.00
63220;BMP180;49320;52.512;13.448;2022-10-31T14:28:32;101551.00;;;25.00
63220;BMP180;49320;52.512;13.448;2022-10-31T14:31:01;101556.00;;;25.00
63220;BMP180;49320;52.512;13.448;2022-10-31T14:33:30;101546.00;;;25.00
63220;BMP180;49320;52.512;13.448;2022-10-31T14:36:17;101555.00;;;25.00
63220;BMP180;49320;52.512;13.448;2022-10-31T14:39:17;101551.00;;;24.90
63220;BMP180;49320;52.512;13.448;2022-10-31T14:42:04;101545.00;;;24.90
63220;BMP180;49320;52.512;13.448;2022-10-31T14:44:45;101540.00;;;24.90
63220;BMP180;49320;52.512;13.448;2022-10-31T14:53:54;101536.00;;;24.70
63220;BMP180;49320;52.512;13.448;2022-10-31T14:56:29;101538.00;;;24.60
63220;BMP180;49320;52.512;13.448;2022-10-31T14:59:02;101536.00;;;24.50
63220;BMP180;49320;52.512;13.448;2022-10-31T15:01:36;101542.00;;;24.30
63220;BMP180;49320;52.512;13.448;2022-10-31T15:04:22;101535.00;;;24.20
63220;BMP180;49320;52.512;13.448;2022-10-31T15:07:14;101528.00;;;24.10
63220;BMP180;49320;52.512;13.448;2022-10-31T15:10:05;101542.00;;;24.00
63220;BMP180;49320;52.512;13.448;2022-10-31T15:12:35;101543.00;;;23.90
63220;BMP180;49320;52.512;13.448;2022-10-31T15:15:14;101551.00;;;23.90
63220;BMP180;49320;52.512;13.448;2022-10-31T15:17:46;101531.00;;;23.80
63220;BMP180;49320;52.512;13.448;2022-10-31T15:20:23;101533.00;;;23.70
63220;BMP180;49320;52.512;13.448;2022-10-31T15:22:51;101523.00;;;23.70
63220;BMP180;49320;52.512;13.448;2022-10-31T15:25:24;101526.00;;;23.60
63220;BMP180;49320;52.512;13.448;2022-10-31T15:27:52;101525.00;;;23.50
63220;BMP180;49320;52.512;13.448;2022-10-31T15:30:26;101534.00;;;23.50
63220;BMP180;49320;52.512;13.448;2022-10-31T15:32:53;101526.00;;;23.40
63220;BMP180;49320;52.512;13.448;2022-10-31T15:35:30;101527.00;;;23.40
63220;BMP180;49320;52.512;13.448;2022-10-31T15:37:58;101523.00;;;23.30
63220;BMP180;49320;52.512;13.448;2022-10-31T15:40:27;101516.00;;;23.30
63220;BMP180;49320;52.512;13.448;2022-10-31T15:43:00;101518.00;;;23.20
63220;BMP180;49320;52.512;13.448;2022-10-31T15:45:28;101515.00;;;23.20
63220;BMP180;49320;52.512;13.448;2022-10-31T15:48:15;101522.00;;;23.10
63220;BMP180;49320;52.512;13.448;2022-10-31T15:50:52;101527.00;;;23.00
63220;BMP180;49320;52.512;13.448;2022-10-31T15:53:47;101523.00;;;23.00